FSIAVMMC

Guest
Details From FSIA - Seychelles Intl
To VMMC - Macau Intl
Flight Number -
Tags Generated
Created
Modified
Stats Distance 3,772 nm / 6,985 km
Max Altitude 0 ft / 0 m
Waypoints 5
Social Downloads 1
Likes 0
Share VATSIM

Download

Looking for another format? Having issues loading an existing format? Contact us
Advertisement - Login to hide

Notes

Generated

Route

FSIA TK VTG U VMMC

ID Type Via Altitude Latitude Longitude Leg Dist Tot Dist Heading (true) Name
O FSIA APT - 0 ft / 0 m -4.66663˚ 55.51080˚ - 0 nm - -
TK NDB - 0 ft / 0 m 16.89951˚ 99.25220˚ 2900 nm 2900 nm 62° / 67° TAK NDB
VTG NDB - 0 ft / 0 m 18.13806˚ 102.63333˚ 207 nm 3107 nm 68° / 70° THANGONE NDB
U NDB - 0 ft / 0 m 21.98500˚ 113.35667˚ 647 nm 3755 nm 67° / 71° SANZAO NDB
O VMMC APT - 0 ft / 0 m 22.16233˚ 113.58613˚ 16 nm 3771 nm 50° / 50° -

Altitude Profile

Advertisement - Login to hide

Weather


0- 5 10 15 20 25 30 35+ Temperature / ° C

Clouds and Precipitation
Forecast for 2017-12-18 18:00 UTC. Updated 2 hours ago

Ground ~20,000 ft ~40,000 ft Winds

FSIA

Details ICAO FSIA (SEZ)
Name SEYCHELLES INTL
Region Seychelles
Timezone Unknown (UTC+0.0)
Stats Elevation 10 ft / 3 m (AMSL)
Location -4.674378° 55.521829°
Runways 1
Magnetic Variation 5.043° W

METAR

FSIA 181500Z 25005KT 9999 FEW014CB SCT016 28/24 Q1012 NOSIG

Decode

TAF

TAF TAF FSIA 181107Z 1812/1912 26010KT 9999 FEW014CB SCT017 PROB40 TEMPO 1813/1824 -SHRA FEW013CB BKN016 TEMPO 1906/1912 -SHRA FEW013CB BKN015

Decode

Departure Runways

ID Width Length Bearing (true) Bearing (mag) Surface Threshold Offset Overrun Length
13 151 ft / 46 m 9,813 ft / 2,991 m 125.18° 130.22° Concrete 1,001 ft / 305 m 279 ft / 85 m
31 151 ft / 46 m 9,813 ft / 2,991 m 305.18° 310.22° Concrete 1,001 ft / 305 m 115 ft / 35 m

VMMC

Details ICAO VMMC (MFM)
Name Macau Intl
Region Macau
Timezone Unknown (UTC+0.0)
Stats Elevation 20 ft / 6 m (AMSL)
Location 22.148675° 113.591412°
Runways 1
Magnetic Variation 2.745° W

METAR

VMMC 181430Z 35017KT CAVOK 14/01 Q1026 NOSIG

Decode

TAF

TAF VMMC 181101Z 1812/1918 36016KT 9000 NSC

Decode

Destination Runways

ID Width Length Bearing (true) Bearing (mag) Surface Threshold Offset Overrun Length
16 148 ft / 45 m 10,584 ft / 3,226 m 160.29° 163.03° Concrete 1,195 ft / 364 m 155 ft / 47 m
34 148 ft / 45 m 10,584 ft / 3,226 m 340.29° 343.03° Concrete 1,215 ft / 370 m 185 ft / 56 m

Approach Navaids

Runway Type Ident Frequency Range Bearing (true) Bearing (mag) Slope Elevation
16 Localiser MCS 111.70 MHz 18 nm / 33 km 214.85° 217.59° - 20 ft / 6 m (AMSL)
16 DME MCS 111.70 MHz 18 nm / 33 km - - - 286 ft / 87 m (AMSL)
34 Localiser MCN 109.70 MHz 18 nm / 33 km 341.45° 344.20° - 20 ft / 6 m (AMSL)
34 Glidescope MCN 109.70 MHz 10 nm / 19 km 340.29° 343.04° 3.00° 20 ft / 6 m (AMSL)
34 DME MCN 109.70 MHz 18 nm / 33 km - - - 13 ft / 4 m (AMSL)

Popular Alternatives